Time;durP1;ratioP1;P1;durP2;ratioP2;P2;SDS_P1;SDS_P2;PMS_P1;PMS_P2;Temp;Humidity;BMP_temperature;BMP_pressure;BME280_temperature;BME280_humidity;BME280_pressure;Samples;Min_cycle;Max_cycle;Signal;HPM_P1;HPM_P2
2024/01/03 00:01:07;;;;;;;3.33;2.30;;;10.60;99.90;;;;;;6209476;23;20013;-63
2024/01/03 00:03:54;;;;;;;3.20;2.08;;;10.60;99.90;;;;;;6209596;23;20074;-63
2024/01/03 00:06:40;;;;;;;3.33;1.83;;;10.60;99.90;;;;;;6213027;23;20004;-63
2024/01/03 00:09:26;;;;;;;2.50;1.65;;;10.60;99.90;;;;;;6211108;23;20106;-64
2024/01/03 00:12:22;;;;;;;3.05;1.90;;;10.70;99.90;;;;;;6210659;23;20468;-63
2024/01/03 00:15:50;;;;;;;2.95;2.10;;;10.70;99.90;;;;;;6209863;23;20001;-63
2024/01/03 00:18:40;;;;;;;3.40;2.17;;;10.70;99.90;;;;;;6209364;23;20543;-63
2024/01/03 00:21:28;;;;;;;3.08;1.83;;;10.60;99.90;;;;;;6210016;23;20351;-64
2024/01/03 00:24:17;;;;;;;1.70;1.33;;;10.60;99.90;;;;;;6210245;23;20016;-63
2024/01/03 00:27:04;;;;;;;2.40;1.70;;;10.60;99.90;;;;;;6209863;23;20433;-64
2024/01/03 00:29:54;;;;;;;2.58;1.58;;;10.60;99.90;;;;;;6211737;23;20021;-63
2024/01/03 00:32:40;;;;;;;3.80;1.73;;;10.70;99.90;;;;;;6209507;23;20361;-63
2024/01/03 00:35:26;;;;;;;1.60;1.27;;;10.70;99.90;;;;;;6189494;23;20503;-63
2024/01/03 00:38:12;;;;;;;2.72;1.88;;;10.70;99.90;;;;;;6210006;23;20468;-63
2024/01/03 00:40:58;;;;;;;2.03;1.40;;;10.70;99.90;;;;;;6209915;23;20009;-63
2024/01/03 00:43:44;;;;;;;2.78;1.40;;;10.70;99.90;;;;;;6209524;23;20392;-75
2024/01/03 00:46:30;;;;;;;2.08;1.30;;;10.70;99.90;;;;;;6208824;23;20388;-76
2024/01/03 00:49:17;;;;;;;1.52;1.23;;;10.70;99.90;;;;;;6209488;23;20028;-74
2024/01/03 00:52:03;;;;;;;4.20;1.25;;;10.70;99.90;;;;;;6209802;23;20451;-76
2024/01/03 00:54:50;;;;;;;1.10;1.00;;;10.70;99.90;;;;;;6210177;23;20013;-75
2024/01/03 00:57:37;;;;;;;2.88;1.30;;;10.70;99.90;;;;;;6210811;23;20337;-75
2024/01/03 01:00:23;;;;;;;2.13;1.35;;;10.70;99.90;;;;;;6209603;23;20013;-75
2024/01/03 01:03:09;;;;;;;2.13;1.33;;;10.70;99.90;;;;;;6208997;23;20009;-75
2024/01/03 01:05:55;;;;;;;1.25;1.10;;;10.80;99.90;;;;;;6209914;23;20083;-74
2024/01/03 01:08:41;;;;;;;2.17;1.30;;;10.80;99.90;;;;;;6209050;23;20016;-74
2024/01/03 01:11:27;;;;;;;2.08;1.35;;;10.80;99.90;;;;;;6209487;23;20083;-74
2024/01/03 01:14:13;;;;;;;1.65;1.00;;;10.80;99.90;;;;;;6209473;23;20005;-74
2024/01/03 01:16:59;;;;;;;2.40;1.40;;;10.80;99.90;;;;;;6213448;23;20114;-73
2024/01/03 01:19:44;;;;;;;2.08;1.17;;;10.80;99.90;;;;;;6234991;23;20020;-72
2024/01/03 01:22:30;;;;;;;1.90;1.27;;;10.80;99.90;;;;;;6233944;23;20059;-73
2024/01/03 01:25:17;;;;;;;2.30;1.30;;;10.70;99.90;;;;;;6240969;23;20008;-72
2024/01/03 01:28:03;;;;;;;2.55;1.50;;;10.80;99.90;;;;;;6238379;23;20036;-72
2024/01/03 01:30:49;;;;;;;1.85;1.13;;;10.80;99.90;;;;;;6209235;23;20107;-74
2024/01/03 01:33:35;;;;;;;2.30;1.40;;;10.80;99.90;;;;;;6209881;23;20009;-74
2024/01/03 01:36:21;;;;;;;2.45;1.25;;;10.80;99.90;;;;;;6208975;23;20333;-74
2024/01/03 01:39:07;;;;;;;2.10;1.33;;;10.70;99.90;;;;;;6209202;23;20325;-74
2024/01/03 01:41:53;;;;;;;2.30;1.35;;;10.80;99.90;;;;;;6209694;23;20016;-74
2024/01/03 01:44:39;;;;;;;1.88;1.00;;;10.80;99.90;;;;;;6208919;23;20336;-73
2024/01/03 01:47:26;;;;;;;1.48;1.20;;;10.70;99.90;;;;;;6208394;23;20453;-74
2024/01/03 01:50:13;;;;;;;0.77;0.65;;;10.70;99.90;;;;;;6210196;23;20024;-74
2024/01/03 01:52:59;;;;;;;1.02;0.80;;;10.70;99.90;;;;;;6211232;23;20061;-74
2024/01/03 01:55:45;;;;;;;1.05;0.75;;;10.70;99.90;;;;;;6212063;23;20104;-73
2024/01/03 01:58:31;;;;;;;1.05;0.75;;;10.70;99.90;;;;;;6212345;23;20329;-74
2024/01/03 02:01:20;;;;;;;1.02;0.82;;;10.70;99.90;;;;;;6211696;23;20004;-74
2024/01/03 02:04:08;;;;;;;1.08;0.90;;;10.70;99.90;;;;;;6211786;23;20016;-74
2024/01/03 02:06:54;;;;;;;1.02;0.70;;;10.70;99.90;;;;;;6212329;23;20400;-74
2024/01/03 02:09:42;;;;;;;1.55;1.00;;;10.70;99.90;;;;;;6211879;23;20345;-74
2024/01/03 02:12:30;;;;;;;0.60;0.57;;;10.60;99.90;;;;;;6210828;23;20012;-74
2024/01/03 02:15:16;;;;;;;1.17;0.90;;;10.60;99.90;;;;;;6212151;23;20012;-73
2024/01/03 02:18:04;;;;;;;1.50;0.93;;;10.60;99.90;;;;;;6209588;22;20024;-73
2024/01/03 02:20:52;;;;;;;1.40;1.00;;;10.60;99.90;;;;;;6212163;23;20009;-74
2024/01/03 02:23:38;;;;;;;1.23;0.90;;;10.60;99.90;;;;;;6212584;23;20015;-74
2024/01/03 02:26:24;;;;;;;1.02;0.70;;;10.60;99.90;;;;;;6212445;23;20009;-72
2024/01/03 02:29:09;;;;;;;1.30;0.80;;;10.60;99.90;;;;;;6209985;23;20103;-74
2024/01/03 02:31:55;;;;;;;1.25;0.75;;;10.60;99.90;;;;;;6210856;23;20349;-74
2024/01/03 02:34:41;;;;;;;2.42;0.88;;;10.60;99.90;;;;;;6210282;23;20008;-74
2024/01/03 02:37:27;;;;;;;1.95;0.70;;;10.60;99.90;;;;;;6209553;23;20005;-73
2024/01/03 02:40:13;;;;;;;1.10;0.85;;;10.60;99.90;;;;;;6209636;23;20012;-74
2024/01/03 02:42:59;;;;;;;1.02;0.70;;;10.60;99.90;;;;;;6210301;23;20070;-73
2024/01/03 02:45:45;;;;;;;0.98;0.93;;;10.60;99.90;;;;;;6210477;23;20435;-73
2024/01/03 02:48:31;;;;;;;1.20;0.60;;;10.70;99.90;;;;;;6211371;23;20051;-73
2024/01/03 02:51:26;;;;;;;0.55;0.40;;;10.70;99.90;;;;;;6211258;23;20016;-73
2024/01/03 02:54:12;;;;;;;0.60;0.50;;;10.70;99.90;;;;;;6212175;23;20032;-74
2024/01/03 02:56:58;;;;;;;1.40;0.68;;;10.70;99.90;;;;;;6210401;23;20433;-72
2024/01/03 02:59:44;;;;;;;0.98;0.60;;;10.70;99.90;;;;;;6211758;23;20009;-73
2024/01/03 03:02:29;;;;;;;1.35;0.88;;;10.80;99.90;;;;;;6210382;23;20458;-74
2024/01/03 03:05:15;;;;;;;0.52;0.52;;;10.80;99.90;;;;;;6209136;23;20012;-74
2024/01/03 03:08:02;;;;;;;2.15;0.73;;;10.80;99.90;;;;;;6209937;23;20422;-73
2024/01/03 03:10:48;;;;;;;1.40;0.70;;;10.80;99.90;;;;;;6210203;23;20048;-72
2024/01/03 03:13:34;;;;;;;1.25;1.15;;;10.80;99.90;;;;;;6212549;23;20008;-73
2024/01/03 03:16:19;;;;;;;0.50;0.50;;;10.80;99.90;;;;;;6210808;23;20019;-72
2024/01/03 07:59:47;;;;;;;4.57;1.80;;;11.10;99.90;;;;;;6197903;23;20024;-70
2024/01/03 08:02:33;;;;;;;4.22;1.85;;;11.10;99.90;;;;;;6182633;23;20017;-72
2024/01/03 08:05:24;;;;;;;2.33;1.17;;;11.10;99.90;;;;;;6182130;23;20381;-72
2024/01/03 08:08:10;;;;;;;7.10;1.45;;;11.10;99.90;;;;;;6185550;23;20040;-72
2024/01/03 08:10:56;;;;;;;4.50;1.23;;;11.10;99.90;;;;;;6211105;23;20029;-72
2024/01/03 08:13:42;;;;;;;3.83;1.30;;;11.20;99.90;;;;;;6209453;23;20013;-73
2024/01/03 08:16:28;;;;;;;2.70;1.52;;;11.20;99.90;;;;;;6206869;23;20044;-73
2024/01/03 08:19:14;;;;;;;3.60;1.50;;;11.20;99.90;;;;;;6199390;23;20005;-73
2024/01/03 08:22:01;;;;;;;2.20;1.20;;;11.20;99.90;;;;;;6183500;23;20027;-74
2024/01/03 08:24:47;;;;;;;2.83;1.30;;;11.30;99.90;;;;;;6181070;23;20107;-74
2024/01/03 08:27:36;;;;;;;3.38;1.20;;;11.30;99.90;;;;;;6182637;23;20032;-74
2024/01/03 08:30:22;;;;;;;3.92;1.42;;;11.30;99.90;;;;;;6182624;23;20059;-71
2024/01/03 08:33:07;;;;;;;1.45;0.98;;;11.30;99.90;;;;;;6182831;23;20009;-71
2024/01/03 08:35:53;;;;;;;2.17;1.08;;;11.30;99.90;;;;;;6183026;23;20028;-74
2024/01/03 08:38:40;;;;;;;3.90;1.75;;;11.30;99.90;;;;;;6182559;23;20079;-73
2024/01/03 08:41:26;;;;;;;3.25;1.10;;;11.30;99.90;;;;;;6179591;23;20371;-74
2024/01/03 08:44:13;;;;;;;4.90;1.25;;;11.30;99.90;;;;;;6182233;23;20020;-74
2024/01/03 08:46:59;;;;;;;3.40;1.80;;;11.30;99.90;;;;;;6181783;23;20414;-73
2024/01/03 08:49:45;;;;;;;3.33;1.40;;;11.40;99.90;;;;;;6182346;23;20020;-74
2024/01/03 08:52:31;;;;;;;3.90;1.30;;;11.40;99.90;;;;;;6182636;23;20016;-73
2024/01/03 08:55:17;;;;;;;4.18;1.17;;;11.40;99.90;;;;;;6183148;23;20021;-71
2024/01/03 08:58:04;;;;;;;3.15;1.60;;;11.50;99.90;;;;;;6179918;23;20005;-73
2024/01/03 09:00:50;;;;;;;1.23;1.13;;;11.50;99.90;;;;;;6195770;23;20120;-73
2024/01/03 09:03:36;;;;;;;1.92;1.13;;;11.50;99.90;;;;;;6208807;23;20008;-73
2024/01/03 09:06:25;;;;;;;4.75;1.85;;;11.50;99.90;;;;;;6208550;23;20054;-73
2024/01/03 09:09:11;;;;;;;2.53;1.20;;;11.50;99.90;;;;;;6208677;23;20039;-73
2024/01/03 09:11:57;;;;;;;3.95;1.30;;;11.50;99.90;;;;;;6207988;23;20028;-74
2024/01/03 09:14:42;;;;;;;2.47;1.10;;;11.50;99.90;;;;;;6209697;23;20016;-73
2024/01/03 09:17:28;;;;;;;1.83;1.00;;;11.60;99.90;;;;;;6208105;23;20008;-71
2024/01/03 09:20:15;;;;;;;1.95;1.08;;;11.60;99.90;;;;;;6189025;23;20020;-71
2024/01/03 09:23:01;;;;;;;4.85;1.27;;;11.70;99.90;;;;;;6212207;23;20036;-73
2024/01/03 09:25:49;;;;;;;2.22;1.20;;;11.70;99.90;;;;;;6211233;23;20016;-72
2024/01/03 09:28:37;;;;;;;3.10;1.60;;;11.80;99.90;;;;;;6211875;23;20066;-73
2024/01/03 09:31:23;;;;;;;4.15;1.52;;;11.80;99.90;;;;;;6210534;23;20012;-73
2024/01/03 09:34:09;;;;;;;6.45;1.70;;;11.90;99.90;;;;;;6208996;23;20083;-75
2024/01/03 09:36:55;;;;;;;4.05;1.85;;;11.90;99.90;;;;;;6211031;23;20009;-74
2024/01/03 09:39:41;;;;;;;6.82;2.22;;;12.00;99.90;;;;;;6209032;23;20088;-74
2024/01/03 09:42:29;;;;;;;2.53;1.40;;;12.00;99.90;;;;;;6208216;23;20009;-74
2024/01/03 09:45:15;;;;;;;3.50;1.58;;;12.00;99.90;;;;;;6211065;23;20008;-74
2024/01/03 09:48:01;;;;;;;2.80;1.38;;;12.10;99.90;;;;;;6209650;23;20091;-73
2024/01/03 09:50:48;;;;;;;2.13;0.82;;;12.20;99.90;;;;;;6209499;23;20057;-74
2024/01/03 09:53:34;;;;;;;2.13;1.35;;;12.20;99.90;;;;;;6209223;23;20027;-74
2024/01/03 09:56:20;;;;;;;2.50;1.15;;;12.30;99.90;;;;;;6211311;23;20441;-72
2024/01/03 09:59:08;;;;;;;2.85;1.15;;;12.30;99.90;;;;;;6209322;23;20022;-69
2024/01/03 10:01:58;;;;;;;2.65;1.00;;;12.40;99.90;;;;;;6207224;23;20024;-69
2024/01/03 10:04:45;;;;;;;2.83;1.10;;;12.40;99.90;;;;;;6207782;23;20040;-69
2024/01/03 10:07:35;;;;;;;1.77;1.02;;;12.40;99.90;;;;;;6210335;23;20095;-69
2024/01/03 10:10:39;;;;;;;2.10;1.15;;;12.50;99.90;;;;;;6208116;23;20095;-69
2024/01/03 10:13:28;;;;;;;6.72;1.80;;;12.50;99.90;;;;;;6189816;23;20088;-69
2024/01/03 10:16:27;;;;;;;2.65;1.63;;;12.50;99.90;;;;;;6208920;23;20012;-69
2024/01/03 10:19:19;;;;;;;2.60;1.20;;;12.60;99.90;;;;;;6212558;23;20008;-69
2024/01/03 10:22:05;;;;;;;5.20;1.42;;;12.60;99.90;;;;;;6210858;23;20012;-69
2024/01/03 10:24:51;;;;;;;3.28;1.67;;;12.60;99.90;;;;;;6211019;23;20009;-69
2024/01/03 10:27:37;;;;;;;4.30;2.05;;;12.70;99.90;;;;;;6210845;23;20012;-69
2024/01/03 10:30:23;;;;;;;3.88;1.83;;;12.70;99.90;;;;;;6210793;23;20259;-69
2024/01/03 10:33:10;;;;;;;4.22;1.75;;;12.90;99.90;;;;;;6209552;23;20008;-69
2024/01/03 10:35:56;;;;;;;2.90;1.50;;;12.80;99.90;;;;;;6208798;23;20043;-69
2024/01/03 10:38:43;;;;;;;3.40;1.90;;;12.90;99.90;;;;;;6209438;23;20350;-69
2024/01/03 10:41:33;;;;;;;3.83;1.30;;;13.00;99.90;;;;;;6211461;23;20047;-69
2024/01/03 10:44:19;;;;;;;3.60;1.10;;;13.00;99.90;;;;;;6190107;23;20062;-70
2024/01/03 10:47:05;;;;;;;5.13;1.70;;;13.00;99.90;;;;;;6211286;23;20539;-69
2024/01/03 10:49:51;;;;;;;5.63;2.47;;;13.10;99.90;;;;;;6211314;23;20017;-69
2024/01/03 10:52:38;;;;;;;5.78;2.17;;;13.10;99.90;;;;;;6209726;23;20036;-69
2024/01/03 10:55:42;;;;;;;4.68;1.98;;;13.20;99.90;;;;;;6209041;23;20008;-70
2024/01/03 10:58:28;;;;;;;6.07;3.13;;;13.20;99.90;;;;;;6212207;23;20004;-70
2024/01/03 11:01:20;;;;;;;5.30;2.40;;;13.20;99.90;;;;;;6208868;23;20098;-70
2024/01/03 11:04:25;;;;;;;5.13;2.42;;;13.20;99.90;;;;;;6212698;23;20013;-69
2024/01/03 11:07:36;;;;;;;4.28;1.50;;;13.20;99.90;;;;;;6209208;23;20023;-69
2024/01/03 11:10:51;;;;;;;4.65;1.70;;;13.30;99.90;;;;;;6190633;23;20059;-69
2024/01/03 11:13:39;;;;;;;3.00;1.70;;;13.30;99.90;;;;;;6209683;23;20027;-69
2024/01/03 11:16:38;;;;;;;4.57;1.65;;;13.30;99.90;;;;;;6209892;23;20005;-69
2024/01/03 11:19:32;;;;;;;3.58;1.58;;;13.30;99.90;;;;;;6188562;23;20012;-69
2024/01/03 11:22:18;;;;;;;4.85;2.10;;;13.40;99.90;;;;;;6219372;23;20015;-69
2024/01/03 11:25:04;;;;;;;7.35;2.03;;;13.40;99.90;;;;;;6234219;23;20015;-69
2024/01/03 11:28:36;;;;;;;4.25;2.17;;;13.40;99.90;;;;;;6224772;23;20008;-69
2024/01/03 11:32:02;;;;;;;6.20;2.13;;;13.50;99.90;;;;;;6214917;23;20396;-69
2024/01/03 11:34:49;;;;;;;3.85;1.75;;;13.50;99.90;;;;;;6210658;23;20016;-70
2024/01/03 11:37:35;;;;;;;4.72;1.95;;;13.50;99.90;;;;;;6211028;23;20012;-69
2024/01/03 11:40:21;;;;;;;4.93;1.83;;;13.40;99.90;;;;;;6213104;23;20012;-69
2024/01/03 11:43:08;;;;;;;6.05;2.25;;;13.40;99.90;;;;;;6211107;23;20012;-69
2024/01/03 11:46:06;;;;;;;5.32;2.28;;;13.50;99.90;;;;;;6210301;23;20016;-70
2024/01/03 11:48:52;;;;;;;3.47;1.45;;;13.50;99.90;;;;;;6210525;23;20020;-69
2024/01/03 11:51:38;;;;;;;5.63;2.13;;;13.50;99.90;;;;;;6190289;23;20407;-69
2024/01/03 11:54:25;;;;;;;3.95;1.52;;;13.50;99.90;;;;;;6210360;23;20009;-70
2024/01/03 11:57:11;;;;;;;4.32;1.95;;;13.60;99.90;;;;;;6210045;23;20009;-70
2024/01/03 12:00:00;;;;;;;2.33;1.15;;;13.60;99.90;;;;;;6210033;23;20013;-71
2024/01/03 12:02:56;;;;;;;5.43;1.73;;;13.50;99.90;;;;;;6211255;23;20352;-70
2024/01/03 12:05:45;;;;;;;3.05;1.48;;;13.50;99.90;;;;;;6209145;23;20028;-69
2024/01/03 12:08:31;;;;;;;6.50;2.53;;;13.60;99.90;;;;;;6210007;23;20005;-70
2024/01/03 12:11:17;;;;;;;5.35;2.33;;;13.60;99.90;;;;;;6209630;23;20441;-70
2024/01/03 12:14:04;;;;;;;6.00;3.00;;;13.50;99.90;;;;;;6210494;23;20019;-70
2024/01/03 12:16:56;;;;;;;7.38;3.28;;;13.50;99.90;;;;;;6209564;23;20020;-69
2024/01/03 12:19:41;;;;;;;6.70;3.22;;;13.50;99.90;;;;;;6211006;23;20544;-69
2024/01/03 12:22:27;;;;;;;7.47;2.53;;;13.50;99.90;;;;;;6209131;23;20104;-70
2024/01/03 12:25:18;;;;;;;6.97;2.60;;;13.50;99.90;;;;;;6209752;23;20004;-70
2024/01/03 12:28:04;;;;;;;6.72;2.60;;;13.50;99.90;;;;;;6211242;23;20014;-69
2024/01/03 12:30:50;;;;;;;10.23;2.88;;;13.50;99.90;;;;;;6206338;23;20020;-70
2024/01/03 12:33:36;;;;;;;7.90;2.60;;;13.50;99.90;;;;;;6210474;23;20012;-70
2024/01/03 12:36:22;;;;;;;6.63;2.53;;;13.50;99.90;;;;;;6207622;23;20016;-70
2024/01/03 12:39:08;;;;;;;4.95;2.17;;;13.40;99.90;;;;;;6206295;23;20017;-70
2024/01/03 12:41:54;;;;;;;5.65;2.17;;;13.40;99.90;;;;;;6205487;23;20009;-70
2024/01/03 12:44:42;;;;;;;4.20;2.10;;;13.40;99.90;;;;;;6207278;23;20066;-70
2024/01/03 12:47:29;;;;;;;5.28;2.10;;;13.40;99.90;;;;;;6209601;23;20004;-68
2024/01/03 12:50:16;;;;;;;7.15;2.47;;;13.40;99.90;;;;;;6211490;23;20020;-68
2024/01/03 12:53:02;;;;;;;6.95;2.17;;;13.40;99.90;;;;;;6212073;23;20538;-68
2024/01/03 12:55:48;;;;;;;5.38;2.40;;;13.40;99.90;;;;;;6208859;23;20012;-69
2024/01/03 12:58:34;;;;;;;6.43;3.05;;;13.40;99.90;;;;;;6207894;23;20101;-67
2024/01/03 13:01:20;;;;;;;5.63;2.70;;;13.30;99.90;;;;;;6202299;23;20024;-70
2024/01/03 13:04:06;;;;;;;8.15;3.50;;;13.30;99.90;;;;;;6206031;23;20047;-69
2024/01/03 13:06:53;;;;;;;7.15;2.40;;;13.30;99.90;;;;;;6210042;23;20005;-69
2024/01/03 13:09:39;;;;;;;7.32;3.53;;;13.30;99.90;;;;;;6206446;23;20515;-68
2024/01/03 13:12:25;;;;;;;9.40;3.95;;;13.30;99.90;;;;;;6188184;23;20114;-69
2024/01/03 13:15:11;;;;;;;8.07;3.17;;;13.30;99.90;;;;;;6206353;23;20008;-68
2024/01/03 13:17:57;;;;;;;7.68;3.55;;;13.30;99.90;;;;;;6208218;23;20040;-69
2024/01/03 13:20:43;;;;;;;8.80;2.30;;;13.30;99.90;;;;;;6205450;23;20012;-69
2024/01/03 13:23:29;;;;;;;7.35;2.42;;;13.30;99.90;;;;;;6210048;23;20009;-69
2024/01/03 13:26:15;;;;;;;10.95;2.40;;;13.30;99.90;;;;;;6209329;23;20059;-69
2024/01/03 13:29:01;;;;;;;5.70;2.40;;;13.30;99.90;;;;;;6208619;23;20638;-70
2024/01/03 13:31:47;;;;;;;6.43;2.28;;;13.30;99.90;;;;;;6207978;23;20077;-69
2024/01/03 13:34:34;;;;;;;7.03;2.33;;;13.30;99.90;;;;;;6196810;23;20365;-72
2024/01/03 13:37:20;;;;;;;5.80;2.65;;;13.30;99.90;;;;;;6205208;23;20017;-72
2024/01/03 13:40:07;;;;;;;4.60;2.00;;;13.30;99.90;;;;;;6202012;23;20341;-73
2024/01/03 13:42:53;;;;;;;4.63;2.13;;;13.30;99.90;;;;;;6208297;23;20063;-72
2024/01/03 13:45:39;;;;;;;5.35;2.40;;;13.30;99.90;;;;;;6209754;23;20012;-73
2024/01/03 13:48:27;;;;;;;5.40;1.90;;;13.30;99.90;;;;;;6201797;23;20425;-70
2024/01/03 13:51:13;;;;;;;3.83;1.83;;;13.30;99.90;;;;;;6204757;23;20025;-69
2024/01/03 13:53:59;;;;;;;5.30;2.05;;;13.30;99.90;;;;;;6210596;23;20096;-68
2024/01/03 13:56:45;;;;;;;7.97;2.10;;;13.30;99.90;;;;;;6209144;23;20019;-70
2024/01/03 13:59:31;;;;;;;5.15;1.50;;;13.30;99.90;;;;;;6204934;23;20398;-69
2024/01/03 14:02:17;;;;;;;3.58;2.00;;;13.30;99.90;;;;;;6182967;23;20091;-70
2024/01/03 14:05:04;;;;;;;3.90;1.77;;;13.30;99.90;;;;;;6206828;23;20100;-68
2024/01/03 14:07:53;;;;;;;7.00;1.92;;;13.30;99.90;;;;;;6206144;23;20086;-70
2024/01/03 14:10:39;;;;;;;2.40;1.20;;;13.20;99.90;;;;;;6205381;23;20021;-68
2024/01/03 14:13:27;;;;;;;4.07;1.35;;;13.20;99.90;;;;;;6204243;23;20016;-68
2024/01/03 14:16:12;;;;;;;3.38;1.38;;;13.20;99.90;;;;;;6205365;23;20009;-68
2024/01/03 14:18:58;;;;;;;4.47;1.90;;;13.20;99.90;;;;;;6209776;23;20015;-68
2024/01/03 14:21:49;;;;;;;2.38;1.30;;;13.20;99.90;;;;;;6202052;23;20012;-70
2024/01/03 14:24:35;;;;;;;2.88;1.23;;;13.10;99.90;;;;;;6211380;23;20062;-68
2024/01/03 14:27:21;;;;;;;3.25;1.00;;;13.10;99.90;;;;;;6199331;23;20454;-68
2024/01/03 14:30:11;;;;;;;2.53;1.27;;;13.00;99.90;;;;;;6205436;23;20048;-68
2024/01/03 14:32:57;;;;;;;3.50;1.20;;;13.10;99.90;;;;;;6200451;23;20087;-68
2024/01/03 14:35:43;;;;;;;2.40;1.20;;;13.00;99.90;;;;;;6188602;23;20016;-68
2024/01/03 14:38:31;;;;;;;2.85;1.00;;;13.00;99.90;;;;;;6231424;23;19988;-68
2024/01/03 14:41:19;;;;;;;4.20;1.60;;;12.90;99.90;;;;;;6213973;23;20016;-69
2024/01/03 14:44:09;;;;;;;3.20;1.10;;;13.00;99.90;;;;;;6211517;23;20055;-68
2024/01/03 14:46:55;;;;;;;5.47;1.52;;;12.90;99.90;;;;;;6210401;23;20012;-69
2024/01/03 14:49:47;;;;;;;3.58;1.63;;;12.90;99.90;;;;;;6210833;23;20021;-69
2024/01/03 14:52:32;;;;;;;1.63;1.15;;;12.80;99.90;;;;;;6206980;23;20355;-68
2024/01/03 14:55:20;;;;;;;2.55;1.55;;;12.80;99.90;;;;;;6210190;23;20013;-69
2024/01/03 14:58:06;;;;;;;3.33;1.52;;;12.80;99.90;;;;;;6200136;23;20005;-69
2024/01/03 15:00:52;;;;;;;3.72;1.70;;;12.80;99.90;;;;;;6205022;23;20024;-68
2024/01/03 15:03:38;;;;;;;3.92;1.50;;;12.80;99.90;;;;;;6208597;23;20012;-68
2024/01/03 15:06:24;;;;;;;3.50;1.65;;;12.80;99.90;;;;;;6188781;23;20405;-68
2024/01/03 15:09:11;;;;;;;8.15;2.20;;;12.80;99.90;;;;;;6207466;23;20025;-68
2024/01/03 15:12:00;;;;;;;3.13;1.80;;;12.70;99.90;;;;;;6204642;23;20016;-68
2024/01/03 15:14:46;;;;;;;3.97;1.75;;;12.70;99.90;;;;;;6184147;23;20508;-68
2024/01/03 15:17:32;;;;;;;2.67;1.70;;;12.70;99.90;;;;;;6209169;23;20465;-68
2024/01/03 15:20:18;;;;;;;5.15;1.60;;;12.70;99.90;;;;;;6188249;23;20396;-69
2024/01/03 15:23:04;;;;;;;2.53;1.50;;;12.70;99.90;;;;;;6208062;23;20070;-69
2024/01/03 15:25:50;;;;;;;6.15;2.03;;;12.70;99.90;;;;;;6207568;23;20019;-69
2024/01/03 15:28:37;;;;;;;2.72;1.50;;;12.70;99.90;;;;;;6209765;23;20004;-69
2024/01/03 15:31:23;;;;;;;4.55;1.85;;;12.70;99.90;;;;;;6210903;23;20048;-68
2024/01/03 15:34:09;;;;;;;4.88;1.73;;;12.60;99.90;;;;;;6210240;23;20071;-69
2024/01/03 15:36:55;;;;;;;2.85;1.88;;;12.70;99.90;;;;;;6210891;23;20009;-69
2024/01/03 15:39:41;;;;;;;5.38;2.60;;;12.60;99.90;;;;;;6211082;23;20016;-69
2024/01/03 15:42:27;;;;;;;4.13;2.17;;;12.60;99.90;;;;;;6210083;23;20040;-68
2024/01/03 15:45:13;;;;;;;4.57;2.10;;;12.60;99.90;;;;;;6209167;23;20012;-68
2024/01/03 15:47:59;;;;;;;5.40;1.92;;;12.60;99.90;;;;;;6209650;23;20015;-69
2024/01/03 15:50:45;;;;;;;6.07;2.35;;;12.60;99.90;;;;;;6208740;23;20055;-69
2024/01/03 15:53:32;;;;;;;5.35;2.38;;;12.60;99.90;;;;;;6210591;23;20009;-68
2024/01/03 15:56:19;;;;;;;5.25;2.17;;;12.60;99.90;;;;;;6209846;23;20012;-70
2024/01/03 15:59:05;;;;;;;3.38;1.77;;;12.60;99.90;;;;;;6213260;23;20381;-69
2024/01/03 16:01:51;;;;;;;2.78;1.48;;;12.60;99.90;;;;;;6211456;23;20021;-69
2024/01/03 16:04:37;;;;;;;2.97;1.85;;;12.60;99.90;;;;;;6212502;23;20333;-69
2024/01/03 16:07:23;;;;;;;2.50;1.63;;;12.60;99.90;;;;;;6203472;23;20345;-68
2024/01/03 16:10:09;;;;;;;2.65;1.77;;;12.60;99.90;;;;;;6201556;23;20516;-69
2024/01/03 16:12:55;;;;;;;2.28;1.40;;;12.60;99.90;;;;;;6200032;23;20091;-68
2024/01/03 16:15:41;;;;;;;3.47;1.75;;;12.50;99.90;;;;;;6201200;23;20023;-68
2024/01/03 16:18:27;;;;;;;3.75;2.03;;;12.50;99.90;;;;;;6200540;23;20008;-68
2024/01/03 16:21:13;;;;;;;5.60;2.83;;;12.50;99.90;;;;;;6202838;23;20054;-69
2024/01/03 16:24:00;;;;;;;7.68;2.75;;;12.50;99.90;;;;;;6200413;23;20110;-71
2024/01/03 16:27:04;;;;;;;6.57;2.72;;;12.50;99.90;;;;;;6199735;23;20024;-69
2024/01/03 16:29:50;;;;;;;4.47;2.42;;;12.50;99.90;;;;;;6177881;23;20553;-69
2024/01/03 16:32:36;;;;;;;6.88;3.45;;;12.50;99.90;;;;;;6201737;23;20092;-68
2024/01/03 16:35:22;;;;;;;8.95;4.18;;;12.50;99.90;;;;;;6200898;23;20021;-69
2024/01/03 16:38:11;;;;;;;8.30;3.72;;;12.50;99.90;;;;;;6200623;23;20016;-69
2024/01/03 16:40:57;;;;;;;6.10;2.83;;;12.50;99.90;;;;;;6201044;23;20013;-69
2024/01/03 16:43:43;;;;;;;5.32;2.92;;;12.50;99.90;;;;;;6199802;23;20017;-69
2024/01/03 16:46:28;;;;;;;4.57;2.60;;;12.50;99.90;;;;;;6201813;23;20079;-69
2024/01/03 16:49:18;;;;;;;3.50;2.15;;;12.50;99.90;;;;;;6200575;23;20025;-69
2024/01/03 16:52:05;;;;;;;5.57;2.70;;;12.50;99.90;;;;;;6200370;23;20039;-69
2024/01/03 16:54:51;;;;;;;5.65;3.00;;;12.50;99.90;;;;;;6200579;23;20016;-69
2024/01/03 16:57:37;;;;;;;5.85;3.33;;;12.50;99.90;;;;;;6201143;23;20095;-70
2024/01/03 17:00:23;;;;;;;6.57;3.38;;;12.40;99.90;;;;;;6199938;23;20032;-69
2024/01/03 17:03:09;;;;;;;6.05;3.42;;;12.50;99.90;;;;;;6200213;23;20364;-69
2024/01/03 17:05:55;;;;;;;5.15;2.95;;;12.50;99.90;;;;;;6199624;23;20536;-69
2024/01/03 17:08:41;;;;;;;7.28;2.92;;;12.50;99.90;;;;;;6199955;23;20580;-69
2024/01/03 17:11:28;;;;;;;4.93;2.25;;;12.50;99.90;;;;;;6201481;23;20040;-69
2024/01/03 17:14:14;;;;;;;3.67;2.05;;;12.50;99.90;;;;;;6199447;23;20437;-69
2024/01/03 17:17:00;;;;;;;3.03;1.92;;;12.40;99.90;;;;;;6200224;23;20143;-69
2024/01/03 17:19:48;;;;;;;3.38;2.03;;;12.40;99.90;;;;;;6202092;23;20046;-69
2024/01/03 17:22:35;;;;;;;3.22;2.03;;;12.40;99.90;;;;;;6200588;23;20083;-69
2024/01/03 17:25:21;;;;;;;5.35;2.30;;;12.50;99.90;;;;;;6200842;23;20465;-69
2024/01/03 17:28:08;;;;;;;5.82;2.20;;;12.40;99.90;;;;;;6204486;23;20001;-69
2024/01/03 17:30:54;;;;;;;5.30;2.53;;;12.40;99.90;;;;;;6200805;23;20024;-69
2024/01/03 17:33:40;;;;;;;4.57;2.42;;;12.40;99.90;;;;;;6200423;23;20013;-69
2024/01/03 17:36:27;;;;;;;4.55;2.63;;;12.30;99.90;;;;;;6198531;23;20015;-69
2024/01/03 17:39:14;;;;;;;6.10;2.38;;;12.30;99.90;;;;;;6200952;23;20036;-68
2024/01/03 17:42:00;;;;;;;4.22;2.15;;;12.20;99.90;;;;;;6201189;23;20017;-69
2024/01/03 17:44:46;;;;;;;6.00;2.58;;;12.20;99.90;;;;;;6177682;23;20012;-70
2024/01/03 17:47:31;;;;;;;6.93;3.08;;;12.20;99.90;;;;;;6199633;23;20071;-70
2024/01/03 17:50:18;;;;;;;5.82;3.10;;;12.20;99.90;;;;;;6203774;23;20104;-69
2024/01/03 17:53:04;;;;;;;5.70;2.90;;;12.10;99.90;;;;;;6220503;23;20106;-69
2024/01/03 17:55:50;;;;;;;7.75;3.50;;;12.10;99.90;;;;;;6217477;23;20019;-70
2024/01/03 17:58:38;;;;;;;5.95;3.13;;;12.10;99.90;;;;;;6207687;23;20012;-70
2024/01/03 18:01:24;;;;;;;7.75;3.85;;;12.10;99.90;;;;;;6213716;23;20491;-69
2024/01/03 18:04:11;;;;;;;6.25;3.47;;;12.10;99.90;;;;;;6200945;23;20019;-70
2024/01/03 18:06:57;;;;;;;9.40;3.67;;;12.10;99.90;;;;;;6203506;23;20021;-70
2024/01/03 18:09:43;;;;;;;5.03;2.92;;;12.10;99.90;;;;;;6200606;23;20449;-71
2024/01/03 18:12:29;;;;;;;4.18;2.45;;;12.00;99.90;;;;;;6202985;23;20001;-71
2024/01/03 18:15:15;;;;;;;4.90;2.13;;;12.00;99.90;;;;;;6199765;23;20123;-71
2024/01/03 18:18:02;;;;;;;3.63;2.08;;;12.00;99.90;;;;;;6202504;23;20564;-71
2024/01/03 18:20:48;;;;;;;4.40;1.83;;;12.00;99.90;;;;;;6181681;23;20417;-71
2024/01/03 18:23:36;;;;;;;4.45;2.05;;;11.90;99.90;;;;;;6199424;23;20023;-70
2024/01/03 18:26:22;;;;;;;4.25;2.33;;;11.90;99.90;;;;;;6200283;23;20008;-71
2024/01/03 18:29:07;;;;;;;5.00;2.25;;;11.90;99.90;;;;;;6178588;23;20054;-71
2024/01/03 18:31:53;;;;;;;7.18;3.70;;;11.90;99.90;;;;;;6200120;23;20019;-71
2024/01/03 18:34:39;;;;;;;5.30;3.08;;;11.90;99.90;;;;;;6201083;23;20009;-72
2024/01/03 18:37:27;;;;;;;6.97;3.72;;;11.90;99.90;;;;;;6201057;23;20066;-71
2024/01/03 18:40:14;;;;;;;9.50;3.38;;;11.90;99.90;;;;;;6179887;23;20656;-70
2024/01/03 18:43:02;;;;;;;6.80;3.58;;;11.90;99.90;;;;;;6201483;23;20197;-71
2024/01/03 18:45:48;;;;;;;8.23;3.72;;;11.80;99.90;;;;;;6200435;23;20095;-72
2024/01/03 18:48:34;;;;;;;8.10;4.07;;;11.80;99.90;;;;;;6203358;23;20469;-71
2024/01/03 18:51:20;;;;;;;8.80;4.35;;;11.80;99.90;;;;;;6202926;23;20048;-70
2024/01/03 18:54:06;;;;;;;6.82;3.63;;;11.80;99.90;;;;;;6202345;23;20035;-70
2024/01/03 18:56:52;;;;;;;5.43;3.22;;;11.80;99.90;;;;;;6200818;23;20369;-68
2024/01/03 18:59:39;;;;;;;7.45;3.10;;;11.70;99.90;;;;;;6201139;22;20047;-69
2024/01/03 19:02:25;;;;;;;6.78;2.60;;;11.70;99.90;;;;;;6201737;23;20245;-71
2024/01/03 19:05:12;;;;;;;5.75;2.70;;;11.70;99.90;;;;;;6199226;23;20020;-70
2024/01/03 19:07:57;;;;;;;5.00;2.75;;;11.70;99.90;;;;;;6201512;23;20043;-70
2024/01/03 19:10:43;;;;;;;6.35;3.22;;;11.60;99.90;;;;;;6201720;23;20396;-70
2024/01/03 19:13:29;;;;;;;6.85;4.15;;;11.60;99.90;;;;;;6202428;23;20429;-70